Time;durP1;ratioP1;P1;durP2;ratioP2;P2;SDS_P1;SDS_P2;PMS_P1;PMS_P2;Temp;Humidity;BMP_temperature;BMP_pressure;BME280_temperature;BME280_humidity;BME280_pressure;Samples;Min_cycle;Max_cycle;Signal;HPM_P1;HPM_P2
2021/01/08 00:00:33;;;;;;;18.20;10.20;;;4.40;99.90;;;;;;5010806;28;20384;-57
2021/01/08 00:02:59;;;;;;;19.77;9.50;;;4.70;99.90;;;;;;5009387;28;20412;-57
2021/01/08 00:05:25;;;;;;;18.13;8.97;;;2.50;99.90;;;;;;5006971;28;21020;-56
2021/01/08 00:07:50;;;;;;;19.57;9.67;;;2.20;99.90;;;;;;5010737;28;20479;-57
2021/01/08 00:10:16;;;;;;;20.23;10.38;;;2.20;99.90;;;;;;5008281;28;20735;-56
2021/01/08 00:12:41;;;;;;;17.10;8.80;;;4.80;99.90;;;;;;5009821;28;20439;-56
2021/01/08 00:15:08;;;;;;;18.17;9.33;;;4.50;99.90;;;;;;5008886;28;20423;-54
2021/01/08 00:17:34;;;;;;;18.13;9.85;;;2.20;99.90;;;;;;5006983;28;20487;-57
2021/01/08 00:20:00;;;;;;;16.83;9.55;;;5.10;99.90;;;;;;5010206;28;20385;-57
2021/01/08 00:22:26;;;;;;;21.25;10.30;;;4.30;99.90;;;;;;5008110;28;20694;-56
2021/01/08 00:24:53;;;;;;;17.38;9.05;;;2.20;99.90;;;;;;5010382;28;20415;-57
2021/01/08 00:27:20;;;;;;;20.10;9.23;;;4.20;99.90;;;;;;5007904;28;20444;-57
2021/01/08 00:29:46;;;;;;;17.02;9.02;;;3.70;99.90;;;;;;5009821;28;20485;-57
2021/01/08 00:32:12;;;;;;;17.30;8.73;;;2.00;99.90;;;;;;5009497;28;20408;-57
2021/01/08 00:34:38;;;;;;;17.00;8.77;;;2.10;99.90;;;;;;5008299;28;20405;-57
2021/01/08 00:37:03;;;;;;;19.50;9.15;;;4.60;99.90;;;;;;5010473;28;20411;-58
2021/01/08 00:39:29;;;;;;;18.77;10.10;;;2.10;99.90;;;;;;5008057;28;20403;-58
2021/01/08 00:41:55;;;;;;;16.37;8.80;;;3.30;99.90;;;;;;5009663;28;20408;-58
2021/01/08 00:44:20;;;;;;;18.35;9.00;;;3.20;99.90;;;;;;5007749;28;20499;-59
2021/01/08 00:46:48;;;;;;;15.97;8.40;;;4.20;99.90;;;;;;5009771;28;20392;-59
2021/01/08 00:49:14;;;;;;;21.08;9.98;;;1.80;99.90;;;;;;5009414;28;20393;-59
2021/01/08 00:51:41;;;;;;;18.23;9.00;;;1.80;99.90;;;;;;5006797;28;20442;-59
2021/01/08 00:54:07;;;;;;;20.00;8.45;;;1.90;99.90;;;;;;5008405;28;20500;-56
2021/01/08 00:56:33;;;;;;;18.23;8.57;;;4.50;99.90;;;;;;5008894;28;20540;-58
2021/01/08 00:58:59;;;;;;;18.27;9.15;;;3.40;99.90;;;;;;5006543;28;20807;-58
2021/01/08 01:01:25;;;;;;;19.83;9.30;;;4.50;99.90;;;;;;5008192;28;20463;-58
2021/01/08 01:03:50;;;;;;;15.77;8.13;;;3.90;99.90;;;;;;5008858;28;20606;-58
2021/01/08 01:06:23;;;;;;;15.32;7.53;;;4.10;99.90;;;;;;5008047;28;20747;-58
2021/01/08 01:08:49;;;;;;;14.70;7.57;;;4.40;99.90;;;;;;5008874;28;20393;-58
2021/01/08 01:11:15;;;;;;;14.98;8.25;;;1.40;99.90;;;;;;5006702;28;20913;-58
2021/01/08 01:13:42;;;;;;;14.77;7.20;;;1.40;99.90;;;;;;5009197;28;20412;-59
2021/01/08 01:16:07;;;;;;;15.10;6.82;;;3.10;99.90;;;;;;5007974;28;20416;-55
2021/01/08 01:18:33;;;;;;;13.82;6.72;;;1.20;99.90;;;;;;5009665;28;20831;-59
2021/01/08 01:20:58;;;;;;;14.55;6.80;;;1.20;99.90;;;;;;5008588;28;20727;-58
2021/01/08 01:23:24;;;;;;;15.80;7.10;;;1.20;99.90;;;;;;5008798;28;20397;-58
2021/01/08 01:25:50;;;;;;;12.97;6.63;;;1.20;99.90;;;;;;5010096;28;20381;-58
2021/01/08 01:28:15;;;;;;;13.60;6.85;;;1.20;99.90;;;;;;5007082;28;20408;-58
2021/01/08 01:30:41;;;;;;;11.40;5.73;;;1.20;99.90;;;;;;5008028;28;20412;-59
2021/01/08 01:33:06;;;;;;;13.70;6.50;;;2.60;99.90;;;;;;5009673;28;20472;-58
2021/01/08 01:35:32;;;;;;;12.68;6.80;;;3.20;99.90;;;;;;5007913;28;20408;-60
2021/01/08 01:37:58;;;;;;;12.30;6.57;;;2.20;99.90;;;;;;5009846;28;20413;-59
2021/01/08 01:40:23;;;;;;;12.65;6.45;;;3.70;99.90;;;;;;5008654;28;20399;-58
2021/01/08 01:42:49;;;;;;;11.90;6.60;;;3.10;99.90;;;;;;4991626;28;20404;-58
2021/01/08 01:45:15;;;;;;;12.73;6.20;;;1.80;99.90;;;;;;5007300;28;20435;-60
2021/01/08 01:47:41;;;;;;;14.43;6.57;;;3.80;99.90;;;;;;5009761;28;20843;-58
2021/01/08 01:50:08;;;;;;;12.68;6.25;;;2.40;99.90;;;;;;5009858;28;20838;-55
2021/01/08 01:52:35;;;;;;;16.30;6.85;;;1.30;99.90;;;;;;5006614;28;20424;-58
2021/01/08 01:55:05;;;;;;;12.77;6.50;;;2.90;99.90;;;;;;5010014;28;20388;-58
2021/01/08 01:57:30;;;;;;;13.30;6.80;;;1.20;99.90;;;;;;5008480;28;21238;-58
2021/01/08 01:59:57;;;;;;;12.83;6.17;;;1.30;99.90;;;;;;5009993;28;20377;-59
2021/01/08 02:02:28;;;;;;;13.95;6.90;;;1.40;99.90;;;;;;5008753;28;20385;-59
2021/01/08 02:04:55;;;;;;;15.55;7.35;;;1.50;99.90;;;;;;5008121;28;20436;-58
2021/01/08 02:07:23;;;;;;;13.67;7.33;;;1.50;99.90;;;;;;5008741;28;20377;-59
2021/01/08 02:09:50;;;;;;;18.13;7.55;;;1.60;99.90;;;;;;5007732;28;20808;-59
2021/01/08 02:12:16;;;;;;;14.55;7.70;;;1.70;99.90;;;;;;5007595;28;20428;-58
2021/01/08 02:14:46;;;;;;;13.90;7.10;;;4.20;99.90;;;;;;5009443;28;20412;-59
2021/01/08 02:17:15;;;;;;;13.15;6.97;;;1.80;99.90;;;;;;5006978;28;20404;-58
2021/01/08 02:19:51;;;;;;;14.47;7.00;;;1.80;99.90;;;;;;5009012;28;20744;-58
2021/01/08 02:22:23;;;;;;;12.57;6.50;;;4.00;99.90;;;;;;5010222;28;20739;-58
2021/01/08 02:25:11;;;;;;;13.68;6.90;;;3.00;99.90;;;;;;5012973;28;20711;-58
2021/01/08 02:27:39;;;;;;;14.07;6.70;;;1.80;99.90;;;;;;5013098;28;20412;-59
2021/01/08 02:30:06;;;;;;;14.53;7.47;;;2.80;99.90;;;;;;5011192;28;20766;-59
2021/01/08 02:32:33;;;;;;;15.87;7.20;;;1.80;99.90;;;;;;5010110;28;21036;-56
2021/01/08 02:35:01;;;;;;;12.85;6.85;;;1.80;99.90;;;;;;5011666;28;20912;-59
2021/01/08 02:37:28;;;;;;;15.07;7.20;;;2.80;99.90;;;;;;5012135;28;20413;-59
2021/01/08 02:39:54;;;;;;;13.95;7.32;;;2.80;99.90;;;;;;5011374;28;20952;-58
2021/01/08 02:42:22;;;;;;;16.23;7.13;;;1.90;99.90;;;;;;5012030;28;20468;-58
2021/01/08 02:44:47;;;;;;;14.98;7.00;;;2.60;99.90;;;;;;5012771;28;20384;-59
2021/01/08 02:47:19;;;;;;;13.88;6.65;;;2.20;99.90;;;;;;5010477;28;20396;-55
2021/01/08 02:49:44;;;;;;;12.07;5.97;;;1.90;99.90;;;;;;5011180;28;20504;-58
2021/01/08 02:52:10;;;;;;;13.97;7.10;;;1.90;99.90;;;;;;5011520;28;20904;-55
2021/01/08 02:54:36;;;;;;;14.02;6.35;;;1.90;99.90;;;;;;5010682;28;20413;-59
2021/01/08 02:57:05;;;;;;;14.18;7.50;;;4.30;99.90;;;;;;5012264;28;20389;-59
2021/01/08 02:59:32;;;;;;;13.00;7.00;;;1.80;99.90;;;;;;5010165;28;20883;-58
2021/01/08 03:01:58;;;;;;;15.02;7.10;;;3.30;99.90;;;;;;5012436;28;20407;-58
2021/01/08 03:04:24;;;;;;;11.88;6.40;;;3.30;99.90;;;;;;5011409;28;20501;-58
2021/01/08 03:06:52;;;;;;;13.95;6.65;;;3.80;99.90;;;;;;5010460;28;20495;-59
2021/01/08 03:09:18;;;;;;;13.60;6.70;;;2.80;99.90;;;;;;5011414;28;20384;-58
2021/01/08 03:11:57;;;;;;;12.45;6.72;;;1.90;99.90;;;;;;5012178;28;20477;-58
2021/01/08 03:14:24;;;;;;;13.45;6.72;;;4.80;99.90;;;;;;5010263;28;20421;-56
2021/01/08 03:16:50;;;;;;;14.80;6.80;;;2.00;99.90;;;;;;5011516;28;20770;-56
2021/01/08 03:19:16;;;;;;;12.07;5.82;;;3.80;99.90;;;;;;5009176;28;20401;-56
2021/01/08 03:21:43;;;;;;;16.30;7.40;;;2.00;99.90;;;;;;5011080;28;20435;-56
2021/01/08 03:24:09;;;;;;;14.40;7.00;;;3.20;99.90;;;;;;5009425;28;20409;-53
2021/01/08 03:26:35;;;;;;;14.45;6.47;;;2.10;99.90;;;;;;5009911;28;20890;-56
2021/01/08 03:29:01;;;;;;;15.50;7.33;;;2.10;99.90;;;;;;5011814;28;20393;-56
2021/01/08 03:31:26;;;;;;;13.53;6.50;;;2.00;99.90;;;;;;5009659;28;20405;-56
2021/01/08 03:33:52;;;;;;;11.87;5.90;;;3.00;99.90;;;;;;5010164;28;20456;-56
2021/01/08 03:36:18;;;;;;;15.57;7.20;;;4.70;99.90;;;;;;5010082;28;20475;-56
2021/01/08 03:38:43;;;;;;;11.30;6.40;;;1.80;99.90;;;;;;5010145;28;20400;-56
2021/01/08 03:41:09;;;;;;;14.38;6.65;;;1.90;99.90;;;;;;5011433;28;20392;-52
2021/01/08 03:43:34;;;;;;;12.98;6.80;;;2.00;99.90;;;;;;5009263;28;20409;-56
2021/01/08 03:46:01;;;;;;;14.87;7.17;;;1.90;99.90;;;;;;5011345;28;20389;-56
2021/01/08 03:48:26;;;;;;;12.25;5.93;;;2.10;99.90;;;;;;5010432;28;20519;-57
2021/01/08 03:50:52;;;;;;;12.20;6.40;;;1.70;99.90;;;;;;5009817;28;20479;-57
2021/01/08 03:53:17;;;;;;;15.05;6.50;;;1.60;99.90;;;;;;5010373;28;20873;-57
2021/01/08 03:55:43;;;;;;;13.70;7.10;;;1.50;99.90;;;;;;5011411;28;20389;-60
2021/01/08 03:58:09;;;;;;;12.27;6.07;;;1.50;99.90;;;;;;5008468;28;20400;-54
2021/01/08 04:00:34;;;;;;;13.90;6.40;;;1.50;99.90;;;;;;5011166;28;20427;-56
2021/01/08 04:03:00;;;;;;;12.32;6.40;;;2.70;99.90;;;;;;5011438;28;20393;-56
2021/01/08 04:05:26;;;;;;;13.03;6.27;;;1.50;99.90;;;;;;5008897;28;20423;-57
2021/01/08 04:07:51;;;;;;;13.65;6.32;;;3.60;99.90;;;;;;5011493;28;20385;-57
2021/01/08 04:10:17;;;;;;;11.52;6.22;;;3.20;99.90;;;;;;5008857;28;20807;-57
2021/01/08 04:12:43;;;;;;;14.37;6.50;;;1.40;99.90;;;;;;5011452;28;20412;-57
2021/01/08 04:15:09;;;;;;;14.25;6.60;;;3.00;99.90;;;;;;5009400;28;20400;-55
2021/01/08 04:17:34;;;;;;;12.27;6.13;;;1.50;99.90;;;;;;5009561;28;20456;-56
2021/01/08 04:20:00;;;;;;;11.40;5.63;;;1.60;99.90;;;;;;5009542;28;20454;-56
2021/01/08 04:22:25;;;;;;;12.23;6.10;;;4.10;99.90;;;;;;5009985;28;20878;-57
2021/01/08 04:24:51;;;;;;;12.13;5.90;;;1.60;99.90;;;;;;5010321;28;20385;-57
2021/01/08 04:27:16;;;;;;;12.13;5.90;;;1.60;99.90;;;;;;5007495;28;20917;-56
2021/01/08 04:29:42;;;;;;;12.10;5.50;;;4.30;99.90;;;;;;5009374;28;20393;-57
2021/01/08 04:32:07;;;;;;;10.27;5.38;;;1.60;99.90;;;;;;5008859;28;20893;-57
2021/01/08 04:34:33;;;;;;;10.60;5.30;;;1.60;99.90;;;;;;5009644;28;20435;-57
2021/01/08 04:36:59;;;;;;;12.33;5.57;;;2.90;99.90;;;;;;5008931;28;20418;-57
2021/01/08 04:39:24;;;;;;;10.25;5.70;;;1.70;99.90;;;;;;5008567;28;20447;-58
2021/01/08 04:41:51;;;;;;;10.43;5.43;;;1.80;99.90;;;;;;5009935;28;20393;-58
2021/01/08 04:44:18;;;;;;;11.07;5.88;;;2.90;99.90;;;;;;5009387;28;20742;-55
2021/01/08 04:46:47;;;;;;;11.35;5.70;;;3.20;99.90;;;;;;5009816;28;20409;-57
2021/01/08 04:49:14;;;;;;;11.02;5.95;;;3.80;99.90;;;;;;5009941;28;20842;-54
2021/01/08 04:51:40;;;;;;;11.57;5.50;;;4.10;99.90;;;;;;5008703;28;20431;-57
2021/01/08 04:54:06;;;;;;;12.27;6.00;;;1.70;99.90;;;;;;5009620;28;20456;-57
2021/01/08 04:56:38;;;;;;;11.27;5.70;;;3.80;99.90;;;;;;5007387;28;20409;-57
2021/01/08 04:59:03;;;;;;;10.77;5.60;;;1.80;99.90;;;;;;5009574;28;22383;-57
2021/01/08 05:01:29;;;;;;;12.38;6.40;;;4.70;99.90;;;;;;5008744;28;20404;-56
2021/01/08 05:03:55;;;;;;;12.00;5.97;;;2.60;99.90;;;;;;5010217;28;20436;-57
2021/01/08 05:06:21;;;;;;;10.23;5.55;;;2.00;99.90;;;;;;5008803;28;20913;-56
2021/01/08 05:08:47;;;;;;;12.93;6.10;;;1.90;99.90;;;;;;5009428;28;20862;-56
2021/01/08 05:11:26;;;;;;;12.40;6.00;;;1.80;99.90;;;;;;5009974;28;20443;-54
2021/01/08 05:13:59;;;;;;;12.07;6.03;;;1.80;99.90;;;;;;5005772;28;20419;-58
2021/01/08 05:16:27;;;;;;;12.88;5.75;;;2.80;99.90;;;;;;5008580;28;20411;-57
2021/01/08 05:18:54;;;;;;;13.38;6.20;;;4.40;99.90;;;;;;5009077;28;20402;-56
2021/01/08 05:21:20;;;;;;;10.93;5.70;;;4.30;99.90;;;;;;5009060;28;20454;-56
2021/01/08 05:23:49;;;;;;;12.70;6.40;;;1.70;99.90;;;;;;5008704;28;20409;-56
2021/01/08 05:26:15;;;;;;;13.20;6.40;;;1.70;99.90;;;;;;5008503;28;20403;-57
2021/01/08 05:28:52;;;;;;;11.50;5.82;;;3.70;99.90;;;;;;4996198;28;20383;-57
2021/01/08 05:31:19;;;;;;;13.40;6.22;;;2.70;99.90;;;;;;5006680;28;20922;-57
2021/01/08 05:33:47;;;;;;;11.40;6.13;;;2.80;99.90;;;;;;5010196;28;20415;-57
2021/01/08 05:36:13;;;;;;;11.50;5.68;;;1.80;99.90;;;;;;5008845;28;20409;-54
2021/01/08 05:38:45;;;;;;;12.60;5.97;;;3.50;99.90;;;;;;5009844;28;20494;-57
2021/01/08 05:41:11;;;;;;;16.05;6.75;;;1.60;99.90;;;;;;5008733;28;20412;-56
2021/01/08 05:43:41;;;;;;;11.57;6.40;;;1.70;99.90;;;;;;5008075;28;20397;-57
2021/01/08 05:46:09;;;;;;;13.68;6.90;;;3.60;99.90;;;;;;5009329;28;20389;-56
2021/01/08 05:48:37;;;;;;;11.15;5.82;;;1.60;99.90;;;;;;5006072;28;20405;-57
2021/01/08 05:51:04;;;;;;;13.00;6.40;;;1.70;99.90;;;;;;5009438;28;20388;-57
2021/01/08 05:53:33;;;;;;;13.18;6.07;;;1.70;99.90;;;;;;5004607;28;20412;-57
2021/01/08 05:55:59;;;;;;;12.30;5.53;;;4.50;99.90;;;;;;5008281;28;20425;-57
2021/01/08 05:58:25;;;;;;;15.18;6.45;;;1.70;99.90;;;;;;5012651;28;20454;-57
2021/01/08 06:01:00;;;;;;;10.63;5.90;;;1.70;99.90;;;;;;5011092;28;20467;-57
2021/01/08 06:03:27;;;;;;;12.63;5.90;;;3.50;99.90;;;;;;5012410;28;20413;-57
2021/01/08 06:05:54;;;;;;;11.27;5.73;;;1.80;99.90;;;;;;5012252;28;20409;-56
2021/01/08 06:08:36;;;;;;;12.27;6.15;;;3.60;99.90;;;;;;5012628;28;20391;-57
2021/01/08 06:11:04;;;;;;;11.93;6.50;;;1.90;99.90;;;;;;5003751;28;20409;-56
2021/01/08 06:13:32;;;;;;;10.18;5.22;;;1.80;99.90;;;;;;5003359;28;20428;-56
2021/01/08 06:16:00;;;;;;;10.40;5.55;;;3.90;99.90;;;;;;5011266;28;20388;-56
2021/01/08 06:18:26;;;;;;;12.60;5.60;;;3.90;99.90;;;;;;5010664;28;20463;-56
2021/01/08 06:20:54;;;;;;;13.27;5.90;;;1.90;99.90;;;;;;5008880;28;20417;-56
2021/01/08 06:23:37;;;;;;;11.52;5.90;;;3.50;99.90;;;;;;5008301;28;20435;-56
2021/01/08 06:26:04;;;;;;;11.82;5.60;;;2.00;99.90;;;;;;5002197;28;20404;-57
2021/01/08 06:28:34;;;;;;;13.43;6.27;;;2.10;99.90;;;;;;5007324;28;20389;-56
2021/01/08 06:31:04;;;;;;;11.15;6.00;;;3.40;99.90;;;;;;5010414;28;20429;-57
2021/01/08 06:33:34;;;;;;;10.70;5.13;;;1.80;99.90;;;;;;5010217;28;20461;-56
2021/01/08 06:36:14;;;;;;;11.30;5.50;;;1.70;99.90;;;;;;5011596;28;20409;-56
2021/01/08 06:38:49;;;;;;;11.55;5.63;;;1.70;99.90;;;;;;5009205;28;20419;-56
2021/01/08 06:41:16;;;;;;;11.05;5.60;;;1.70;99.90;;;;;;5012358;28;20468;-53
2021/01/08 06:43:49;;;;;;;12.77;5.50;;;4.50;99.90;;;;;;5011846;28;20829;-57
2021/01/08 06:46:23;;;;;;;10.20;5.03;;;1.90;99.90;;;;;;5009719;28;20878;-54
2021/01/08 06:48:54;;;;;;;9.73;5.30;;;4.30;99.90;;;;;;5010674;28;20452;-56
2021/01/08 06:51:28;;;;;;;11.13;5.15;;;1.60;99.90;;;;;;5011579;28;20389;-56
2021/01/08 06:53:57;;;;;;;10.75;5.18;;;1.60;99.90;;;;;;5011722;28;20533;-56
2021/01/08 06:56:31;;;;;;;10.95;5.20;;;3.10;99.90;;;;;;4993266;28;20420;-58
2021/01/08 06:58:57;;;;;;;10.70;5.00;;;1.80;99.90;;;;;;5008210;28;20424;-57
2021/01/08 07:01:52;;;;;;;9.82;4.70;;;1.60;99.90;;;;;;5010832;28;20763;-58
2021/01/08 07:04:29;;;;;;;13.50;5.40;;;1.50;99.90;;;;;;5009864;28;20451;-57
2021/01/08 07:07:01;;;;;;;11.00;5.00;;;1.50;99.90;;;;;;5012194;28;20482;-57
2021/01/08 07:09:35;;;;;;;12.05;5.60;;;1.60;99.90;;;;;;5009670;28;20444;-57
2021/01/08 07:12:02;;;;;;;10.57;4.93;;;1.70;99.90;;;;;;5011417;28;20404;-58
2021/01/08 07:14:28;;;;;;;9.80;4.90;;;1.60;99.90;;;;;;5009543;28;20503;-56
2021/01/08 07:16:56;;;;;;;11.93;5.57;;;1.70;99.90;;;;;;5011484;28;20397;-56
2021/01/08 07:19:24;;;;;;;10.27;4.82;;;1.80;99.90;;;;;;5009954;28;20472;-56
2021/01/08 07:21:52;;;;;;;10.40;4.63;;;3.60;99.90;;;;;;5011608;28;20388;-57
2021/01/08 07:24:25;;;;;;;9.30;4.80;;;1.80;99.90;;;;;;5010670;28;20743;-55
2021/01/08 07:26:52;;;;;;;10.10;4.82;;;1.80;99.90;;;;;;5010246;28;20421;-55
2021/01/08 07:29:27;;;;;;;10.53;4.90;;;1.80;99.90;;;;;;5011058;28;20385;-53
2021/01/08 07:31:55;;;;;;;9.23;4.60;;;1.80;99.90;;;;;;5010984;28;20408;-58
2021/01/08 07:34:33;;;;;;;8.90;4.40;;;1.70;99.90;;;;;;5010006;28;20412;-58
2021/01/08 07:36:59;;;;;;;9.80;4.87;;;1.60;99.90;;;;;;5009871;28;20496;-58
2021/01/08 07:39:41;;;;;;;9.57;4.67;;;1.50;99.90;;;;;;5010779;28;20460;-58
2021/01/08 07:42:35;;;;;;;9.40;5.30;;;1.60;99.90;;;;;;5011032;28;20726;-58
2021/01/08 07:45:02;;;;;;;9.32;4.90;;;1.60;99.90;;;;;;5009771;28;20747;-58
2021/01/08 07:47:29;;;;;;;10.32;5.30;;;1.70;99.90;;;;;;5010190;28;20377;-58
2021/01/08 07:50:08;;;;;;;10.18;5.30;;;1.70;99.90;;;;;;5009746;28;20405;-57
2021/01/08 07:52:39;;;;;;;11.18;5.45;;;1.70;99.90;;;;;;5008568;28;20401;-58
2021/01/08 07:55:05;;;;;;;9.50;5.10;;;1.70;99.90;;;;;;5011185;28;20431;-58
2021/01/08 07:58:00;;;;;;;9.25;5.07;;;2.60;99.90;;;;;;5010121;28;20389;-58
2021/01/08 08:00:26;;;;;;;10.68;4.95;;;1.80;99.90;;;;;;5008748;28;20404;-58
2021/01/08 08:02:56;;;;;;;9.40;4.18;;;2.40;99.90;;;;;;5010724;28;20405;-58
2021/01/08 08:05:25;;;;;;;8.93;4.40;;;1.80;99.90;;;;;;5008430;28;20412;-58
2021/01/08 08:07:57;;;;;;;9.30;4.47;;;1.80;99.90;;;;;;5010915;28;20379;-57
2021/01/08 08:10:24;;;;;;;9.32;4.82;;;1.80;99.90;;;;;;5008602;28;20443;-58
2021/01/08 08:12:51;;;;;;;9.73;4.60;;;1.70;99.90;;;;;;5009207;28;20423;-58
2021/01/08 08:15:17;;;;;;;8.13;4.10;;;1.70;99.90;;;;;;5008002;28;20416;-55
2021/01/08 08:17:46;;;;;;;9.05;4.32;;;1.80;99.90;;;;;;5010234;28;20432;-58
2021/01/08 08:20:23;;;;;;;9.60;4.70;;;1.80;99.90;;;;;;5010442;28;20716;-57
2021/01/08 08:22:52;;;;;;;8.87;4.10;;;4.30;99.90;;;;;;5010433;28;20735;-58
2021/01/08 08:25:31;;;;;;;8.75;4.50;;;1.90;99.90;;;;;;5010071;28;20472;-55
2021/01/08 08:28:00;;;;;;;7.68;3.70;;;2.00;99.90;;;;;;5010713;28;20377;-58
2021/01/08 08:30:27;;;;;;;9.30;4.10;;;3.50;99.90;;;;;;5009696;28;20385;-58
2021/01/08 08:32:54;;;;;;;9.77;4.25;;;1.80;99.90;;;;;;5010602;28;20508;-58
2021/01/08 08:35:21;;;;;;;9.25;4.40;;;1.90;99.90;;;;;;5009740;28;20447;-58
2021/01/08 08:37:47;;;;;;;9.55;4.35;;;1.90;99.90;;;;;;5010483;28;20439;-58
2021/01/08 08:40:13;;;;;;;8.13;4.00;;;2.80;99.90;;;;;;5010069;28;20774;-57
2021/01/08 08:42:40;;;;;;;8.90;4.20;;;2.00;99.90;;;;;;5010366;28;20459;-56
2021/01/08 08:45:18;;;;;;;8.95;4.38;;;2.10;99.90;;;;;;5010031;28;20373;-55
2021/01/08 08:47:48;;;;;;;8.15;4.30;;;2.10;99.90;;;;;;5010067;28;20474;-58
2021/01/08 08:50:15;;;;;;;11.52;4.50;;;2.00;99.90;;;;;;5010289;28;20479;-58
2021/01/08 08:52:41;;;;;;;9.02;4.60;;;2.00;99.90;;;;;;5009475;28;20870;-58
2021/01/08 08:55:07;;;;;;;7.90;3.90;;;4.60;99.90;;;;;;5010072;28;20388;-58
2021/01/08 08:57:33;;;;;;;7.00;3.95;;;1.80;99.90;;;;;;5008916;28;20428;-58
2021/01/08 08:59:59;;;;;;;7.50;3.92;;;1.90;99.90;;;;;;5009769;28;20380;-58
2021/01/08 09:02:29;;;;;;;7.82;3.97;;;1.90;99.90;;;;;;5008764;28;20404;-58
2021/01/08 09:05:00;;;;;;;8.95;4.05;;;2.00;99.90;;;;;;5008225;28;20843;-58
2021/01/08 09:07:38;;;;;;;9.82;4.90;;;2.00;99.90;;;;;;5008066;28;20436;-57
2021/01/08 09:10:26;;;;;;;7.85;4.20;;;4.40;99.90;;;;;;5009287;28;20385;-58
2021/01/08 09:13:32;;;;;;;9.43;4.88;;;2.10;99.90;;;;;;5007983;28;20810;-58
2021/01/08 09:16:03;;;;;;;10.80;5.00;;;2.00;99.90;;;;;;5009019;28;20377;-58
2021/01/08 09:19:11;;;;;;;10.18;5.32;;;2.70;99.90;;;;;;5008459;28;20381;-58
2021/01/08 09:21:42;;;;;;;10.60;5.15;;;2.00;99.90;;;;;;5008672;28;20400;-58
2021/01/08 09:24:17;;;;;;;10.85;6.05;;;2.10;99.90;;;;;;5009194;28;20396;-57
2021/01/08 09:26:44;;;;;;;9.23;4.80;;;2.00;99.90;;;;;;5008841;28;20464;-58
2021/01/08 09:29:10;;;;;;;9.40;5.22;;;2.00;99.90;;;;;;5008843;28;20423;-58
2021/01/08 09:31:42;;;;;;;9.60;5.25;;;1.90;99.90;;;;;;5009747;28;20464;-58
2021/01/08 09:34:08;;;;;;;10.80;5.70;;;1.90;99.90;;;;;;5012023;28;20420;-58
2021/01/08 09:36:35;;;;;;;10.53;5.10;;;3.80;99.90;;;;;;5011589;28;20719;-58
2021/01/08 09:39:04;;;;;;;10.48;5.03;;;3.70;99.90;;;;;;5012089;28;20540;-58
2021/01/08 09:41:33;;;;;;;10.55;5.18;;;1.90;99.90;;;;;;5011398;28;20377;-58
2021/01/08 09:44:00;;;;;;;10.67;5.70;;;2.00;99.90;;;;;;5012110;28;20447;-58
2021/01/08 09:46:26;;;;;;;11.05;5.40;;;2.20;99.90;;;;;;5011519;28;20381;-58
2021/01/08 09:48:53;;;;;;;10.80;5.03;;;2.90;99.90;;;;;;5012042;28;20391;-58
2021/01/08 09:51:19;;;;;;;9.80;5.32;;;2.10;99.90;;;;;;5011262;28;20400;-57
2021/01/08 09:53:55;;;;;;;11.63;5.60;;;4.20;99.90;;;;;;5011648;28;20484;-58
2021/01/08 09:56:21;;;;;;;12.05;5.80;;;2.00;99.90;;;;;;5011323;28;20392;-57
2021/01/08 09:59:07;;;;;;;12.05;6.10;;;4.70;99.90;;;;;;5011981;28;20388;-58
2021/01/08 10:02:08;;;;;;;10.70;5.60;;;4.80;99.90;;;;;;5010596;28;20913;-58
2021/01/08 10:04:35;;;;;;;10.00;5.63;;;2.00;99.90;;;;;;4965388;28;1306242;-58
2021/01/08 10:07:05;;;;;;;11.13;6.60;;;1.90;99.90;;;;;;5013243;28;20483;-58
2021/01/08 10:09:48;;;;;;;11.63;6.38;;;3.80;99.90;;;;;;5012180;28;20397;-57
2021/01/08 10:12:18;;;;;;;11.23;6.13;;;4.90;99.90;;;;;;5013204;28;20878;-57
2021/01/08 10:14:45;;;;;;;12.57;6.77;;;2.00;99.90;;;;;;5010853;28;20566;-58
2021/01/08 10:17:15;;;;;;;15.18;7.80;;;4.70;99.90;;;;;;5011678;28;20743;-57
2021/01/08 10:19:44;;;;;;;14.93;7.43;;;1.90;99.90;;;;;;5010865;28;20862;-57
2021/01/08 10:22:10;;;;;;;16.75;8.88;;;3.70;99.90;;;;;;5012659;28;20421;-58
2021/01/08 10:24:36;;;;;;;17.17;7.80;;;2.90;99.90;;;;;;5010633;28;20396;-58
2021/01/08 10:27:01;;;;;;;18.87;9.50;;;1.80;99.90;;;;;;5012249;28;21015;-57
2021/01/08 10:29:38;;;;;;;20.63;9.85;;;1.90;99.90;;;;;;5011563;28;20385;-57
2021/01/08 10:32:12;;;;;;;21.70;10.52;;;3.30;99.90;;;;;;5009581;28;20416;-58
2021/01/08 10:34:42;;;;;;;22.70;10.53;;;2.10;99.90;;;;;;5011558;28;20969;-55
2021/01/08 10:37:19;;;;;;;17.00;8.75;;;2.00;99.90;;;;;;5011077;28;20535;-55
2021/01/08 10:39:46;;;;;;;26.00;11.68;;;2.40;99.90;;;;;;5008883;28;20443;-56
2021/01/08 10:42:12;;;;;;;22.15;11.35;;;4.10;99.90;;;;;;5010552;28;20409;-54
2021/01/08 10:44:38;;;;;;;17.15;8.80;;;2.10;99.90;;;;;;5010597;28;20397;-56
2021/01/08 10:47:07;;;;;;;16.33;8.30;;;2.10;99.90;;;;;;5011064;28;20443;-55
2021/01/08 10:49:33;;;;;;;15.93;8.90;;;2.80;99.90;;;;;;5009930;28;20407;-58
2021/01/08 10:51:58;;;;;;;15.20;8.55;;;1.90;99.90;;;;;;5010782;28;20725;-58
2021/01/08 10:54:24;;;;;;;16.83;8.40;;;3.40;99.90;;;;;;5009575;28;20483;-55
2021/01/08 10:56:50;;;;;;;13.27;7.43;;;2.30;99.90;;;;;;5010744;28;20400;-56
2021/01/08 10:59:16;;;;;;;18.30;8.75;;;4.70;99.90;;;;;;5010972;28;20383;-56
2021/01/08 11:01:43;;;;;;;18.47;8.63;;;1.70;99.90;;;;;;5011002;28;20400;-57
2021/01/08 11:04:09;;;;;;;17.05;8.13;;;1.70;99.90;;;;;;5010246;28;20415;-55
2021/01/08 11:06:36;;;;;;;16.23;7.82;;;2.40;99.90;;;;;;5010986;28;20393;-57
2021/01/08 11:09:02;;;;;;;15.38;7.97;;;1.80;99.90;;;;;;5010177;28;21091;-56
2021/01/08 11:11:28;;;;;;;17.17;9.10;;;1.80;99.90;;;;;;5009258;28;20399;-56
2021/01/08 11:13:54;;;;;;;16.38;8.27;;;2.20;99.90;;;;;;5010877;28;20862;-56
2021/01/08 11:16:20;;;;;;;20.48;9.05;;;1.80;99.90;;;;;;5009880;28;20468;-54
2021/01/08 11:18:46;;;;;;;19.80;9.40;;;0.80;99.90;;;;;;5010377;28;20420;-57
2021/01/08 11:21:18;;;;;;;16.73;8.35;;;1.70;99.90;;;;;;5010854;28;20924;-57
2021/01/08 11:23:43;;;;;;;17.63;9.10;;;1.70;99.90;;;;;;5008988;28;20403;-55
2021/01/08 11:26:09;;;;;;;13.97;6.80;;;3.00;99.90;;;;;;5011044;28;20378;-57
2021/01/08 11:28:34;;;;;;;19.17;8.90;;;3.20;99.90;;;;;;5010582;28;20393;-56
2021/01/08 11:31:00;;;;;;;15.77;8.30;;;1.60;99.90;;;;;;5009400;28;20758;-54
2021/01/08 11:33:26;;;;;;;17.53;8.67;;;2.50;99.90;;;;;;5010054;28;20423;-54
2021/01/08 11:35:51;;;;;;;16.73;8.80;;;1.50;99.90;;;;;;5010354;28;20751;-54
2021/01/08 11:38:17;;;;;;;18.90;9.10;;;3.40;99.90;;;;;;5009889;28;20404;-54
2021/01/08 11:40:42;;;;;;;13.83;6.90;;;1.60;99.90;;;;;;5010080;28;20864;-54
2021/01/08 11:43:08;;;;;;;15.27;7.70;;;1.50;99.90;;;;;;5011132;28;20823;-54
2021/01/08 11:45:34;;;;;;;18.25;8.90;;;3.80;99.90;;;;;;5008351;28;20404;-54
2021/01/08 11:47:59;;;;;;;15.80;7.97;;;1.60;99.90;;;;;;5010321;28;20392;-54
2021/01/08 11:50:25;;;;;;;14.50;7.00;;;1.80;99.90;;;;;;5008474;28;20874;-54
2021/01/08 11:52:50;;;;;;;13.47;7.27;;;1.70;99.90;;;;;;5008693;28;20420;-54
2021/01/08 11:55:16;;;;;;;15.47;8.50;;;1.70;99.90;;;;;;5010007;28;20743;-54
2021/01/08 11:57:41;;;;;;;16.75;8.20;;;3.20;99.90;;;;;;5008381;28;20404;-55
2021/01/08 12:00:08;;;;;;;13.57;7.63;;;1.70;99.90;;;;;;5009780;28;20954;-54
2021/01/08 12:02:33;;;;;;;16.15;7.90;;;1.80;99.90;;;;;;5023647;28;20814;-55
2021/01/08 12:04:59;;;;;;;14.50;6.43;;;4.40;99.90;;;;;;5010162;28;20405;-54
2021/01/08 12:07:24;;;;;;;15.55;8.82;;;1.60;99.90;;;;;;5008350;28;20462;-54
2021/01/08 12:09:51;;;;;;;16.25;8.00;;;1.80;99.90;;;;;;5010281;28;20443;-54
2021/01/08 12:12:16;;;;;;;14.65;8.23;;;1.80;99.90;;;;;;5007031;28;20423;-54
2021/01/08 12:14:42;;;;;;;13.65;6.45;;;2.00;99.90;;;;;;5007968;28;20801;-54
2021/01/08 12:17:09;;;;;;;13.03;7.50;;;2.00;99.90;;;;;;5009817;28;20468;-55
2021/01/08 12:19:36;;;;;;;14.32;7.30;;;2.20;99.90;;;;;;5008328;28;20874;-54
2021/01/08 12:22:03;;;;;;;13.65;6.75;;;3.30;99.90;;;;;;5009015;28;20393;-54
2021/01/08 12:24:29;;;;;;;12.30;6.03;;;2.20;99.90;;;;;;5009719;28;20468;-54
2021/01/08 12:26:55;;;;;;;14.17;7.27;;;2.00;99.90;;;;;;5008410;28;20435;-55
2021/01/08 12:29:22;;;;;;;14.82;7.03;;;2.30;99.90;;;;;;5009223;28;20779;-54
2021/01/08 12:31:47;;;;;;;12.05;5.97;;;3.90;99.90;;;;;;5009538;28;20405;-55
2021/01/08 12:34:14;;;;;;;13.03;6.10;;;2.90;99.90;;;;;;5008129;28;20428;-54
2021/01/08 12:36:39;;;;;;;15.30;6.50;;;3.60;99.90;;;;;;5009201;28;20537;-55
2021/01/08 12:39:05;;;;;;;10.60;4.70;;;4.50;99.90;;;;;;5008497;28;20389;-55
2021/01/08 12:41:32;;;;;;;12.70;5.47;;;1.90;99.90;;;;;;5008518;28;20463;-55
2021/01/08 12:43:58;;;;;;;10.68;5.82;;;2.00;99.90;;;;;;5009972;28;20399;-54
2021/01/08 12:46:24;;;;;;;13.23;6.65;;;4.80;99.90;;;;;;5007311;28;20500;-54
2021/01/08 12:48:50;;;;;;;12.02;6.25;;;2.20;99.90;;;;;;5009695;28;20464;-55
2021/01/08 12:51:16;;;;;;;12.10;6.40;;;3.90;99.90;;;;;;5008129;28;20474;-55
2021/01/08 12:53:43;;;;;;;11.00;5.22;;;2.20;99.90;;;;;;5007959;28;21201;-54